createdAt,value
2023-05-05T04:44:36.190Z,77.28
2023-05-05T04:47:06.590Z,77.24
2023-05-05T04:49:36.675Z,77.20
2023-05-05T04:52:06.027Z,77.03
2023-05-05T04:54:38.656Z,76.85
2023-05-05T04:57:08.112Z,76.95
2023-05-05T04:59:37.432Z,76.78
2023-05-05T05:02:07.052Z,76.44
2023-05-05T05:04:36.549Z,75.79
2023-05-05T05:07:06.298Z,74.96
2023-05-05T05:09:35.309Z,74.55
2023-05-05T05:12:04.080Z,74.01
2023-05-05T05:14:37.373Z,73.22
2023-05-05T05:17:06.824Z,72.81
2023-05-05T05:19:36.159Z,72.98
2023-05-05T05:22:05.248Z,72.99
2023-05-05T05:24:36.869Z,72.61
2023-05-05T05:27:10.158Z,71.95
2023-05-05T05:29:41.168Z,71.65
2023-05-05T05:32:09.615Z,71.68
2023-05-05T05:34:38.267Z,71.65
2023-05-05T05:37:08.772Z,70.91
2023-05-05T05:40:26.970Z,71.14
2023-05-05T05:42:54.999Z,71.10
2023-05-05T05:45:25.056Z,70.39
2023-05-05T05:47:53.728Z,70.19
2023-05-05T05:50:21.833Z,70.15
2023-05-05T05:52:49.984Z,69.86
2023-05-05T05:55:18.473Z,69.92
2023-05-05T05:57:47.370Z,70.38
2023-05-05T06:01:09.606Z,69.79
2023-05-05T06:03:38.232Z,69.31
2023-05-05T07:00:55.587Z,68.31
2023-05-05T07:03:28.018Z,67.51
2023-05-05T07:05:58.153Z,68.39
2023-05-05T07:09:21.452Z,68.20
2023-05-05T07:11:50.127Z,67.89
2023-05-05T07:14:18.322Z,67.76
2023-05-05T07:16:46.806Z,67.33
2023-05-05T07:19:16.089Z,67.74
2023-05-05T07:21:45.021Z,66.60
2023-05-05T07:24:13.552Z,65.28
2023-05-05T07:26:41.941Z,65.47
2023-05-05T07:29:11.238Z,64.83
2023-05-05T07:31:40.805Z,64.45
2023-05-05T07:34:09.130Z,64.88
